IAG weather

Niagara Falls International Airport
Niagara Falls, New York, United States

Public forecast

Using degrees Fahrenheit for public forecast. Weather courtesy of forecast.io.

Current aviation weather report (METAR) for Niagara Falls International Airport

Retrieved 2019/10/22 10:19 UTC (0 seconds ago):

KIAG 221019Z AUTO 18009KT 6SM -RA BR FEW028 BKN046 OVC085 13/12 A2977 RMK AO2 P0001 T01330122

Aviation forecast (TAF) for Niagara Falls International Airport

Retrieved 2019/10/22 06:42 UTC (3 hours ago):

TAF KIAG 220541Z 2206/2306 17014G21KT P6SM VCSH OVC060 WS020/18045KT FM220800 18012G18KT 6SM -SHRA OVC040 WS020/18040KT FM221100 17011KT 4SM RA OVC020 FM221500 19011G17KT 5SM RA OVC060 FM221800 19012G19KT 6SM -SHRA OVC080 FM222000 22012G19KT P6SM VCSH BKN040 FM230500 24012G18KT 6SM -SHRA BR OVC020